createdAt,value
2023-03-07T00:00:18.075Z,2.13
2023-03-07T00:02:50.050Z,2.33
2023-03-07T00:05:17.473Z,2.17
2023-03-07T00:07:44.689Z,1.48
2023-03-07T00:10:12.055Z,1.58
2023-03-07T00:12:39.302Z,2.10
2023-03-07T00:15:08.013Z,1.80
2023-03-07T00:17:39.053Z,1.88
2023-03-07T00:20:07.591Z,1.63
2023-03-07T00:22:35.989Z,1.65
2023-03-07T00:25:04.076Z,1.48
2023-03-07T00:27:32.006Z,1.50
2023-03-07T00:29:59.217Z,1.45
2023-03-07T00:32:27.086Z,1.15
2023-03-07T00:34:55.707Z,1.40
2023-03-07T00:37:22.877Z,1.10
2023-03-07T00:39:50.161Z,1.00
2023-03-07T00:42:17.627Z,1.63
2023-03-07T00:44:44.856Z,1.40
2023-03-07T00:47:12.280Z,1.23
2023-03-07T00:49:39.592Z,1.30
2023-03-07T00:52:07.475Z,1.37
2023-03-07T00:54:34.669Z,1.52
2023-03-07T00:57:01.928Z,1.70
2023-03-07T00:59:29.160Z,2.00
2023-03-07T01:01:56.343Z,1.30
2023-03-07T01:04:23.621Z,1.03
2023-03-07T01:06:50.798Z,1.10
2023-03-07T01:09:17.938Z,1.90
2023-03-07T01:11:45.162Z,1.40
2023-03-07T01:14:12.505Z,1.42
2023-03-07T01:16:39.723Z,1.30
2023-03-07T01:19:08.459Z,1.38
2023-03-07T01:21:38.626Z,1.35
2023-03-07T01:24:07.711Z,1.20
2023-03-07T01:26:35.439Z,1.60
2023-03-07T01:29:05.135Z,1.40
2023-03-07T01:31:35.440Z,1.77
2023-03-07T01:34:03.257Z,1.35
2023-03-07T01:36:34.712Z,1.58
2023-03-07T01:39:14.055Z,1.77
2023-03-07T01:42:03.695Z,1.30
2023-03-07T01:44:30.967Z,0.90
2023-03-07T01:47:01.258Z,1.58
2023-03-07T01:49:48.811Z,1.05
2023-03-07T01:52:21.977Z,0.90
2023-03-07T01:54:56.249Z,1.00
2023-03-07T01:57:29.678Z,1.15
2023-03-07T02:00:01.213Z,0.88
2023-03-07T02:02:29.318Z,0.90
2023-03-07T02:05:21.681Z,1.75
2023-03-07T02:07:51.368Z,0.90
2023-03-07T02:10:23.387Z,1.25
2023-03-07T02:12:53.183Z,1.35
2023-03-07T02:15:20.726Z,1.38
2023-03-07T02:17:48.285Z,1.08
2023-03-07T02:20:30.490Z,1.40
2023-03-07T02:22:57.935Z,0.90
2023-03-07T02:25:43.538Z,1.63
2023-03-07T02:28:15.274Z,1.40
2023-03-07T02:31:00.848Z,1.65
2023-03-07T02:33:31.924Z,1.37
2023-03-07T02:36:07.054Z,1.00
2023-03-07T02:38:39.850Z,1.25
2023-03-07T02:41:10.879Z,1.55
2023-03-07T02:43:38.542Z,1.55
2023-03-07T02:46:06.858Z,1.80
2023-03-07T02:48:34.197Z,1.27
2023-03-07T02:51:01.553Z,1.45
2023-03-07T02:53:28.885Z,1.42
2023-03-07T02:55:56.144Z,1.50
2023-03-07T02:58:23.402Z,1.33
2023-03-07T03:00:50.610Z,1.17
2023-03-07T03:03:18.207Z,0.95
2023-03-07T03:05:45.406Z,0.98
2023-03-07T03:08:13.349Z,0.85
2023-03-07T03:10:40.909Z,1.47
2023-03-07T03:13:08.556Z,1.10
2023-03-07T03:15:36.136Z,1.00
2023-03-07T03:18:03.423Z,1.48
2023-03-07T03:20:30.960Z,1.20
2023-03-07T03:22:58.246Z,1.10
2023-03-07T03:25:27.141Z,1.20
2023-03-07T03:27:54.474Z,0.98
2023-03-07T03:30:21.903Z,1.20
2023-03-07T03:32:49.187Z,1.10
2023-03-07T03:35:19.046Z,1.00
2023-03-07T03:37:47.815Z,0.93
2023-03-07T03:40:17.244Z,0.98
2023-03-07T03:42:45.615Z,0.90
2023-03-07T03:45:17.188Z,1.02
2023-03-07T03:47:44.369Z,1.00
2023-03-07T03:50:11.977Z,0.77
2023-03-07T03:52:39.941Z,0.80
2023-03-07T03:55:09.847Z,1.00
2023-03-07T03:57:37.089Z,0.98
2023-03-07T04:00:08.070Z,1.00
2023-03-07T04:02:39.718Z,0.90
2023-03-07T04:05:10.291Z,1.10
2023-03-07T04:07:37.592Z,1.27
2023-03-07T04:10:05.455Z,1.00
2023-03-07T04:12:33.359Z,1.13
2023-03-07T04:15:00.610Z,1.20
2023-03-07T04:17:27.843Z,1.30
2023-03-07T04:19:55.010Z,1.30
2023-03-07T04:22:22.433Z,1.55
2023-03-07T04:24:49.784Z,1.27
2023-03-07T04:27:17.786Z,1.02
2023-03-07T04:29:45.008Z,1.23
2023-03-07T04:32:19.651Z,1.02
2023-03-07T04:34:46.909Z,0.80
2023-03-07T04:37:14.077Z,1.00
2023-03-07T04:39:41.278Z,0.90
2023-03-07T04:42:10.405Z,0.90
2023-03-07T04:44:37.934Z,1.05
2023-03-07T04:47:05.379Z,0.82
2023-03-07T04:49:35.568Z,0.90
2023-03-07T04:52:05.491Z,1.02
2023-03-07T04:54:32.926Z,1.00
2023-03-07T04:57:01.695Z,0.90
2023-03-07T04:59:29.109Z,0.80
2023-03-07T05:01:56.336Z,1.13
2023-03-07T05:04:23.849Z,0.85
2023-03-07T05:06:51.131Z,1.10
2023-03-07T05:09:18.532Z,1.20
2023-03-07T05:11:45.989Z,0.80
2023-03-07T05:14:13.640Z,1.10
2023-03-07T05:16:41.848Z,1.13
2023-03-07T05:19:09.682Z,0.93
2023-03-07T05:21:39.826Z,1.13
2023-03-07T05:24:07.878Z,1.05
2023-03-07T05:26:36.134Z,1.13
2023-03-07T05:29:04.102Z,0.95
2023-03-07T05:31:31.543Z,0.93
2023-03-07T05:33:59.214Z,0.80
2023-03-07T05:36:26.488Z,1.20
2023-03-07T05:38:56.205Z,1.10
2023-03-07T05:41:23.701Z,0.88
2023-03-07T05:43:50.920Z,0.98
2023-03-07T05:46:18.167Z,0.88
2023-03-07T05:48:45.749Z,0.90
2023-03-07T05:51:13.119Z,0.70
2023-03-07T05:53:40.452Z,1.00
2023-03-07T05:56:08.356Z,0.80
2023-03-07T05:58:37.210Z,0.90
2023-03-07T06:01:05.471Z,1.15
2023-03-07T06:03:33.390Z,0.90
2023-03-07T06:06:00.638Z,1.52
2023-03-07T06:08:27.789Z,1.45
2023-03-07T06:10:55.255Z,1.65
2023-03-07T06:13:25.015Z,1.52
2023-03-07T06:15:55.742Z,1.27
2023-03-07T06:18:25.720Z,1.42
2023-03-07T06:21:01.189Z,1.27
2023-03-07T06:23:33.520Z,1.40
2023-03-07T06:26:01.316Z,1.73
2023-03-07T06:28:31.223Z,1.37
2023-03-07T06:30:59.725Z,0.90
2023-03-07T06:33:29.127Z,1.10
2023-03-07T06:35:56.866Z,1.20
2023-03-07T06:38:24.325Z,1.13
2023-03-07T06:40:56.397Z,1.30
2023-03-07T06:43:23.669Z,0.90
2023-03-07T06:45:50.982Z,1.70
2023-03-07T06:48:18.291Z,1.42
2023-03-07T06:50:45.892Z,1.60
2023-03-07T06:53:13.022Z,1.00
2023-03-07T06:55:40.303Z,1.00
2023-03-07T06:58:08.511Z,2.10
2023-03-07T07:00:35.737Z,1.40
2023-03-07T07:03:03.427Z,1.00
2023-03-07T07:05:31.167Z,0.90
2023-03-07T07:07:58.386Z,1.27
2023-03-07T07:10:25.691Z,1.75
2023-03-07T07:12:56.523Z,1.35
2023-03-07T07:15:25.780Z,1.70
2023-03-07T07:17:52.938Z,1.63
2023-03-07T07:20:20.348Z,1.15
2023-03-07T07:22:47.538Z,2.15
2023-03-07T07:25:14.887Z,1.80
2023-03-07T07:27:42.169Z,1.80
2023-03-07T07:30:10.026Z,1.47
2023-03-07T07:32:37.574Z,1.65
2023-03-07T07:35:06.482Z,1.20
2023-03-07T07:37:33.698Z,1.23
2023-03-07T07:40:00.843Z,1.00
2023-03-07T07:42:27.992Z,0.97
2023-03-07T07:45:13.666Z,1.45
2023-03-07T07:47:40.900Z,0.80
2023-03-07T07:50:09.273Z,1.05
2023-03-07T07:52:36.677Z,1.27
2023-03-07T07:55:04.422Z,1.40
2023-03-07T07:57:31.783Z,1.33
2023-03-07T07:59:59.858Z,1.00
2023-03-07T08:02:28.747Z,1.27
2023-03-07T08:04:56.458Z,1.10
2023-03-07T08:07:23.675Z,1.10
2023-03-07T08:09:50.883Z,0.90
2023-03-07T08:12:18.048Z,1.17
2023-03-07T08:14:45.216Z,0.80
2023-03-07T08:17:12.341Z,0.82
2023-03-07T08:19:39.534Z,0.97
2023-03-07T08:22:07.155Z,0.80
2023-03-07T08:24:40.584Z,0.98
2023-03-07T08:27:09.326Z,0.90
2023-03-07T08:29:36.554Z,1.20
2023-03-07T08:32:04.250Z,0.83
2023-03-07T08:34:34.306Z,1.42
2023-03-07T08:37:01.448Z,1.35
2023-03-07T08:39:28.671Z,1.48
2023-03-07T08:41:56.753Z,1.35
2023-03-07T08:44:23.989Z,1.27
2023-03-07T08:46:51.159Z,1.30
2023-03-07T08:49:18.329Z,1.25
2023-03-07T08:51:48.588Z,1.10
2023-03-07T08:54:16.083Z,1.25
2023-03-07T08:56:43.228Z,1.20
2023-03-07T08:59:10.381Z,0.98
2023-03-07T09:01:39.594Z,1.35
2023-03-07T09:04:08.035Z,1.65
2023-03-07T09:06:35.192Z,1.15
2023-03-07T09:09:02.377Z,1.30
2023-03-07T09:11:29.800Z,1.25
2023-03-07T09:13:57.029Z,1.20
2023-03-07T09:16:24.233Z,1.63
2023-03-07T09:18:51.582Z,1.58
2023-03-07T09:21:19.506Z,2.10
2023-03-07T09:23:46.724Z,1.45
2023-03-07T09:26:14.276Z,1.80
2023-03-07T09:28:42.193Z,1.85
2023-03-07T09:31:12.155Z,1.90
2023-03-07T09:33:40.313Z,2.13
2023-03-07T09:36:11.186Z,2.75
2023-03-07T09:38:39.602Z,1.45
2023-03-07T09:41:33.496Z,1.73
2023-03-07T09:44:19.073Z,1.40
2023-03-07T09:47:36.837Z,1.67
2023-03-07T09:50:13.771Z,1.85
2023-03-07T09:52:41.752Z,1.20
2023-03-07T09:55:20.798Z,1.17
2023-03-07T09:57:55.299Z,0.85
2023-03-07T10:00:34.745Z,1.50
2023-03-07T10:03:29.575Z,1.20
2023-03-07T10:06:02.117Z,1.23
2023-03-07T10:08:33.832Z,1.30
2023-03-07T10:11:28.509Z,1.33
2023-03-07T10:14:18.135Z,1.30
2023-03-07T10:17:03.469Z,1.60
2023-03-07T10:19:56.141Z,1.13
2023-03-07T10:22:47.245Z,1.30
2023-03-07T10:25:44.512Z,1.05
2023-03-07T10:28:29.921Z,1.10
2023-03-07T10:31:13.440Z,1.67
2023-03-07T10:33:42.486Z,1.27
2023-03-07T10:36:16.498Z,1.60
2023-03-07T10:38:55.678Z,1.60
2023-03-07T10:41:23.070Z,1.60
2023-03-07T10:43:52.481Z,1.77
2023-03-07T10:46:27.551Z,1.52
2023-03-07T10:49:10.717Z,1.55
2023-03-07T10:52:15.680Z,1.40
2023-03-07T10:54:42.908Z,1.80
2023-03-07T10:57:13.198Z,1.70
2023-03-07T10:59:48.472Z,1.35
2023-03-07T11:02:52.720Z,1.30
2023-03-07T11:05:31.509Z,1.00
2023-03-07T11:08:19.064Z,1.03
2023-03-07T11:10:46.344Z,1.08
2023-03-07T11:13:18.687Z,1.02
2023-03-07T11:15:46.551Z,1.05
2023-03-07T11:18:39.443Z,1.17
2023-03-07T11:21:06.668Z,1.00
2023-03-07T11:23:33.879Z,1.20
2023-03-07T11:26:22.502Z,1.17
2023-03-07T11:29:13.659Z,1.50
2023-03-07T11:31:49.287Z,1.10
2023-03-07T11:34:35.039Z,1.10
2023-03-07T11:37:28.723Z,1.38
2023-03-07T11:40:22.923Z,1.55
2023-03-07T11:43:18.450Z,1.45
2023-03-07T11:46:05.945Z,1.73
2023-03-07T11:49:08.297Z,1.77
2023-03-07T11:51:44.797Z,1.50
2023-03-07T11:54:17.887Z,1.10
2023-03-07T11:56:49.926Z,1.60
2023-03-07T11:59:25.976Z,1.50
2023-03-07T12:02:02.510Z,1.73
2023-03-07T12:04:49.904Z,1.50
2023-03-07T12:07:46.449Z,1.50
2023-03-07T12:10:16.358Z,1.30
2023-03-07T12:13:02.223Z,1.23
2023-03-07T12:15:54.364Z,1.00
2023-03-07T12:18:27.521Z,1.58
2023-03-07T12:21:22.251Z,1.40
2023-03-07T12:23:55.041Z,1.35
2023-03-07T12:26:44.932Z,1.40
2023-03-07T12:29:34.822Z,1.30
2023-03-07T12:32:09.423Z,1.67
2023-03-07T12:34:49.810Z,1.30
2023-03-07T12:37:23.281Z,1.60
2023-03-07T12:40:00.286Z,1.30
2023-03-07T12:42:27.855Z,1.40
2023-03-07T12:45:09.104Z,1.73
2023-03-07T12:47:59.730Z,1.17
2023-03-07T12:50:41.329Z,1.35
2023-03-07T12:53:37.700Z,1.67
2023-03-07T12:56:09.099Z,1.60
2023-03-07T12:58:44.860Z,1.63
2023-03-07T13:01:26.053Z,1.73
2023-03-07T13:04:05.321Z,1.20
2023-03-07T13:06:34.046Z,1.15
2023-03-07T13:09:04.012Z,1.10
2023-03-07T13:11:33.962Z,1.90
2023-03-07T13:14:03.167Z,1.00
2023-03-07T13:16:40.476Z,1.00
2023-03-07T13:19:36.247Z,1.02
2023-03-07T13:22:23.405Z,1.07
2023-03-07T13:24:55.330Z,1.38
2023-03-07T13:27:30.906Z,1.20
2023-03-07T13:30:18.133Z,1.10
2023-03-07T13:32:48.601Z,1.00
2023-03-07T13:35:30.805Z,1.00
2023-03-07T13:38:34.078Z,0.90
2023-03-07T13:41:05.590Z,1.02
2023-03-07T13:43:54.609Z,1.75
2023-03-07T13:46:24.844Z,1.00
2023-03-07T13:48:51.984Z,1.30
2023-03-07T13:51:19.314Z,1.20
2023-03-07T13:53:50.795Z,0.90
2023-03-07T13:56:20.001Z,1.40
2023-03-07T13:59:24.450Z,1.20
2023-03-07T14:01:59.054Z,1.40
2023-03-07T14:04:54.219Z,1.20
2023-03-07T14:07:39.884Z,1.40
2023-03-07T14:10:29.724Z,1.35
2023-03-07T14:13:21.418Z,1.42
2023-03-07T14:16:09.378Z,1.17
2023-03-07T14:18:49.884Z,1.20
2023-03-07T14:21:56.836Z,1.25
2023-03-07T14:24:39.362Z,1.02
2023-03-07T14:27:13.409Z,1.20
2023-03-07T14:30:16.775Z,1.10
2023-03-07T14:32:44.025Z,1.13
2023-03-07T14:35:15.229Z,1.40
2023-03-07T14:37:44.138Z,1.48
2023-03-07T14:40:26.397Z,1.15
2023-03-07T14:43:16.118Z,1.43
2023-03-07T14:45:52.042Z,1.40
2023-03-07T14:48:47.339Z,1.15
2023-03-07T14:51:27.908Z,1.17
2023-03-07T14:53:56.647Z,1.13
2023-03-07T14:56:31.408Z,1.10
2023-03-07T14:59:01.721Z,1.48
2023-03-07T15:01:36.279Z,0.90
2023-03-07T15:04:19.281Z,1.40
2023-03-07T15:06:46.498Z,1.20
2023-03-07T15:09:13.726Z,1.20
2023-03-07T15:11:48.572Z,1.20
2023-03-07T15:14:33.640Z,1.30
2023-03-07T15:17:04.784Z,1.58
2023-03-07T15:19:39.248Z,1.40
2023-03-07T15:22:15.354Z,0.73
2023-03-07T15:24:48.339Z,1.02
2023-03-07T15:27:21.762Z,1.50
2023-03-07T15:29:49.185Z,0.98
2023-03-07T15:32:39.058Z,1.50
2023-03-07T15:35:09.044Z,0.97
2023-03-07T15:37:55.476Z,1.33
2023-03-07T15:40:25.375Z,1.23
2023-03-07T15:42:58.314Z,1.00
2023-03-07T15:45:38.344Z,1.23
2023-03-07T15:48:15.142Z,1.07
2023-03-07T15:50:42.732Z,1.05
2023-03-07T15:53:23.282Z,0.90
2023-03-07T15:55:59.977Z,1.08
2023-03-07T15:58:27.732Z,1.05
2023-03-07T16:01:06.120Z,1.00
2023-03-07T16:03:33.828Z,1.00
2023-03-07T16:06:01.956Z,0.85
2023-03-07T16:08:29.544Z,1.00
2023-03-07T16:11:01.043Z,1.15
2023-03-07T16:13:38.714Z,1.10
2023-03-07T16:16:27.220Z,1.10
2023-03-07T16:18:58.152Z,1.15
2023-03-07T16:21:26.136Z,1.15
2023-03-07T16:23:53.345Z,1.20
2023-03-07T16:26:25.033Z,1.00
2023-03-07T16:28:53.600Z,1.00
2023-03-07T16:31:21.196Z,0.90
2023-03-07T16:33:48.950Z,0.90
2023-03-07T16:36:16.594Z,1.30
2023-03-07T16:38:45.703Z,0.97
2023-03-07T16:41:21.865Z,1.17
2023-03-07T16:43:57.735Z,1.30
2023-03-07T16:46:25.936Z,0.70
2023-03-07T16:48:53.159Z,1.20
2023-03-07T16:51:22.822Z,1.13
2023-03-07T16:53:51.031Z,1.52
2023-03-07T16:56:26.615Z,1.10
2023-03-07T16:58:54.218Z,1.15
2023-03-07T17:01:21.520Z,1.20
2023-03-07T17:03:48.763Z,1.00
2023-03-07T17:06:16.994Z,1.17
2023-03-07T17:08:45.392Z,1.23
2023-03-07T17:11:26.920Z,1.20
2023-03-07T17:13:58.557Z,1.20
2023-03-07T17:16:27.021Z,1.10
2023-03-07T17:18:54.348Z,1.13
2023-03-07T17:21:22.739Z,1.60
2023-03-07T17:23:50.482Z,1.15
2023-03-07T17:26:34.668Z,1.20
2023-03-07T17:29:08.111Z,1.00
2023-03-07T17:31:35.438Z,1.08
2023-03-07T17:34:02.942Z,1.10
2023-03-07T17:36:31.582Z,1.50
2023-03-07T17:38:58.704Z,1.10
2023-03-07T17:41:25.864Z,1.27
2023-03-07T17:43:53.029Z,1.17
2023-03-07T17:46:20.983Z,1.70
2023-03-07T17:48:48.197Z,2.00
2023-03-07T17:51:15.375Z,1.45
2023-03-07T17:53:42.552Z,1.43
2023-03-07T17:56:13.110Z,1.90
2023-03-07T17:58:40.752Z,1.35
2023-03-07T18:01:08.818Z,1.70
2023-03-07T18:03:36.030Z,1.95
2023-03-07T18:06:04.152Z,1.90
2023-03-07T18:08:31.726Z,2.50
2023-03-07T18:11:04.698Z,2.47
2023-03-07T18:13:32.210Z,2.08
2023-03-07T18:16:00.237Z,2.30
2023-03-07T18:18:33.181Z,2.43
2023-03-07T18:21:04.783Z,2.28
2023-03-07T18:23:33.006Z,3.10
2023-03-07T18:26:02.987Z,3.47
2023-03-07T18:28:31.177Z,3.10
2023-03-07T18:30:59.319Z,2.90
2023-03-07T18:33:28.298Z,3.08
2023-03-07T18:35:56.833Z,2.55
2023-03-07T18:38:25.412Z,3.10
2023-03-07T18:41:02.378Z,2.90
2023-03-07T18:43:29.557Z,3.47
2023-03-07T18:45:56.741Z,3.70
2023-03-07T18:48:23.976Z,4.85
2023-03-07T18:50:59.340Z,4.60
2023-03-07T18:53:27.211Z,4.03
2023-03-07T18:55:54.411Z,4.67
2023-03-07T18:58:21.646Z,3.92
2023-03-07T19:00:49.054Z,3.35
2023-03-07T19:03:16.564Z,2.88
2023-03-07T19:05:48.555Z,2.95
2023-03-07T19:08:16.847Z,2.93
2023-03-07T19:10:45.023Z,3.40
2023-03-07T19:13:12.318Z,2.65
2023-03-07T19:15:39.610Z,2.75
2023-03-07T19:18:06.840Z,2.30
2023-03-07T19:20:34.079Z,2.37
2023-03-07T19:23:01.284Z,2.25
2023-03-07T19:25:30.379Z,1.88
2023-03-07T19:27:57.569Z,1.92
2023-03-07T19:30:24.936Z,2.20
2023-03-07T19:32:52.087Z,2.17
2023-03-07T19:35:19.261Z,2.10
2023-03-07T19:37:46.601Z,2.17
2023-03-07T19:40:13.928Z,2.42
2023-03-07T19:42:41.724Z,2.45
2023-03-07T19:45:09.287Z,2.23
2023-03-07T19:47:36.486Z,1.75
2023-03-07T19:50:03.978Z,1.63
2023-03-07T19:52:31.223Z,1.70
2023-03-07T19:54:58.478Z,1.75
2023-03-07T19:57:25.674Z,2.00
2023-03-07T19:59:53.542Z,2.10
2023-03-07T20:02:20.905Z,1.80
2023-03-07T20:04:50.646Z,2.22
2023-03-07T20:07:17.843Z,2.20
2023-03-07T20:09:44.989Z,1.80
2023-03-07T20:12:12.432Z,2.08
2023-03-07T20:14:42.793Z,1.92
2023-03-07T20:17:11.333Z,1.70
2023-03-07T20:19:38.597Z,3.35
2023-03-07T20:22:05.826Z,1.83
2023-03-07T20:24:33.255Z,2.15
2023-03-07T20:27:00.491Z,1.60
2023-03-07T20:29:27.728Z,1.60
2023-03-07T20:31:54.944Z,1.20
2023-03-07T20:34:25.331Z,1.63
2023-03-07T20:36:54.677Z,1.73
2023-03-07T20:39:21.890Z,2.30
2023-03-07T20:41:49.080Z,2.75
2023-03-07T20:44:16.378Z,2.55
2023-03-07T20:46:43.733Z,2.07
2023-03-07T20:49:13.551Z,1.33
2023-03-07T20:51:41.833Z,1.73
2023-03-07T20:54:12.939Z,1.60
2023-03-07T20:56:41.244Z,1.70
2023-03-07T20:59:11.427Z,1.60
2023-03-07T21:01:38.922Z,1.10
2023-03-07T21:04:12.125Z,1.10
2023-03-07T21:06:42.537Z,0.90
2023-03-07T21:09:11.547Z,1.10
2023-03-07T21:11:40.670Z,1.57
2023-03-07T21:14:08.395Z,1.20
2023-03-07T21:16:35.763Z,1.23
2023-03-07T21:19:04.824Z,1.30
2023-03-07T21:21:34.977Z,1.58
2023-03-07T21:24:03.169Z,1.40
2023-03-07T21:26:35.805Z,1.17
2023-03-07T21:29:04.113Z,1.20
2023-03-07T21:31:34.092Z,1.25
2023-03-07T21:34:04.394Z,1.08
2023-03-07T21:36:31.869Z,1.10
2023-03-07T21:38:59.737Z,1.40
2023-03-07T21:41:28.653Z,1.80
2023-03-07T21:43:57.617Z,1.85
2023-03-07T21:46:25.868Z,1.88
2023-03-07T21:48:53.215Z,1.93
2023-03-07T21:51:21.114Z,1.77
2023-03-07T21:53:48.328Z,1.80
2023-03-07T21:56:17.140Z,2.00
2023-03-07T21:58:48.157Z,2.00
2023-03-07T22:01:21.650Z,1.77
2023-03-07T22:03:51.882Z,1.60
2023-03-07T22:06:19.266Z,1.85
2023-03-07T22:08:46.526Z,1.35
2023-03-07T22:11:14.414Z,1.17
2023-03-07T22:13:42.556Z,1.50
2023-03-07T22:16:15.688Z,2.33
2023-03-07T22:18:42.995Z,2.10
2023-03-07T22:21:17.879Z,1.80
2023-03-07T22:23:45.803Z,1.92
2023-03-07T22:26:13.212Z,1.87
2023-03-07T22:28:40.977Z,1.48
2023-03-07T22:31:11.470Z,1.58
2023-03-07T22:33:39.963Z,1.55
2023-03-07T22:36:10.427Z,1.35
2023-03-07T22:38:37.862Z,1.40
2023-03-07T22:41:08.072Z,1.48
2023-03-07T22:43:35.976Z,1.30
2023-03-07T22:46:04.363Z,0.82
2023-03-07T22:48:31.943Z,0.70
2023-03-07T22:50:59.632Z,0.73
2023-03-07T22:53:32.314Z,1.00
2023-03-07T22:56:00.215Z,0.80
2023-03-07T22:58:28.763Z,0.82
2023-03-07T23:00:56.236Z,1.10
2023-03-07T23:03:23.772Z,0.80
2023-03-07T23:05:51.205Z,0.90
2023-03-07T23:08:18.477Z,1.27
2023-03-07T23:10:45.651Z,0.88
2023-03-07T23:13:12.763Z,1.00
2023-03-07T23:15:42.726Z,0.90
2023-03-07T23:18:10.111Z,0.80
2023-03-07T23:20:38.751Z,1.55
2023-03-07T23:23:06.401Z,1.20
2023-03-07T23:25:33.738Z,0.80
2023-03-07T23:28:01.115Z,1.03
2023-03-07T23:30:28.336Z,1.20
2023-03-07T23:32:55.519Z,1.05
2023-03-07T23:35:23.716Z,0.80
2023-03-07T23:37:50.871Z,1.00
2023-03-07T23:40:18.429Z,1.00
2023-03-07T23:42:45.629Z,1.08
2023-03-07T23:45:12.876Z,0.98
2023-03-07T23:47:40.522Z,1.30
2023-03-07T23:50:08.876Z,1.40
2023-03-07T23:52:36.245Z,1.30
2023-03-07T23:55:04.131Z,1.00
2023-03-07T23:57:31.273Z,1.00
2023-03-07T23:59:58.411Z,1.30
